PWSweather.com
Personal Weather Stations
Station Observations
STPETERS
BroadstairsGB

BroadstairsGB

Lat: 51.37, Lon: 1.423

Elevation: 141

Station Type: WH1081

Latest ConditionsUpdated 5:45:00 AM GMT Friday, Feb 27, 2015
Currently Today's Max Today's Min Today's Average
Temperature 37.4°F3.0°C 40.6°F4.8°C 37.4°F3.0°C 38.9°F3.8°C
Dew Point 32.1°F0.1°C 33.8°F1.0°C 31.8°F-0.1°C 32.4°F0.2°C
Winds 7.4 mph NW11.9 kmh NW 12.0 mph NW19.3 kmh NW - 9.5 mph 15.3 kmh
Wind Gusts 11.4 mph18.3 kmh 17.4 mph28.0 kmh - -
Humidity 81% 81% 74% 77%
Pressure 30.05 in1017.6 mb 30.05 in1017.6 mb 29.96 in1014.6 mb -
Hour Temp Dew Point Humidity Winds Wind Gusts Pressure Precip Precip Rate Daily Precip Total
05:45 AM 37.4°F3.0°C 32.1°F0.1°C 81% 7.4 mph NW11.9 kmh NW 11.4 mph18.3 kmh 30.05 in1017.6 mb 0.00 in0.0 mm 0.00 in/hr0.0 mm/hr 0.00 in0.0 mm
05:30 AM 37.6°F3.1°C 32.0°F0.0°C 80% 7.2 mph WNW11.6 kmh WNW 10.7 mph17.2 kmh 30.04 in1017.3 mb 0.00 in0.0 mm 0.00 in/hr0.0 mm/hr 0.00 in0.0 mm
05:15 AM 37.8°F3.2°C 31.8°F-0.1°C 79% 7.7 mph NNW12.4 kmh NNW 9.8 mph15.8 kmh 30.04 in1017.3 mb 0.00 in0.0 mm 0.00 in/hr0.0 mm/hr 0.00 in0.0 mm
05:00 AM 38.1°F3.4°C 32.2°F0.1°C 79% 10.8 mph NW17.4 kmh NW 14.5 mph23.3 kmh 30.04 in1017.3 mb 0.00 in0.0 mm 0.00 in/hr0.0 mm/hr 0.00 in0.0 mm
04:45 AM 38.3°F3.5°C 32.4°F0.2°C 79% 8.5 mph NNW13.7 kmh NNW 12.1 mph19.5 kmh 30.03 in1016.9 mb 0.00 in0.0 mm 0.00 in/hr0.0 mm/hr 0.00 in0.0 mm
04:30 AM 38.1°F3.4°C 31.9°F-0.1°C 78% 9.0 mph NW14.5 kmh NW 11.4 mph18.3 kmh 30.03 in1016.9 mb 0.00 in0.0 mm 0.00 in/hr0.0 mm/hr 0.00 in0.0 mm
04:15 AM 38.1°F3.4°C 32.2°F0.1°C 79% 9.1 mph NW14.6 kmh NW 15.2 mph24.5 kmh 30.02 in1016.6 mb 0.00 in0.0 mm 0.00 in/hr0.0 mm/hr 0.00 in0.0 mm
04:00 AM 38.3°F3.5°C 32.4°F0.2°C 79% 9.3 mph NW15.0 kmh NW 13.0 mph20.9 kmh 30.02 in1016.6 mb 0.00 in0.0 mm 0.00 in/hr0.0 mm/hr 0.00 in0.0 mm
03:45 AM 38.5°F3.6°C 32.5°F0.3°C 79% 8.6 mph NW13.8 kmh NW 11.4 mph18.3 kmh 30.01 in1016.3 mb 0.00 in0.0 mm 0.00 in/hr0.0 mm/hr 0.00 in0.0 mm
03:30 AM 38.5°F3.6°C 32.2°F0.1°C 78% 10.2 mph WNW16.4 kmh WNW 13.0 mph20.9 kmh 30.00 in1015.9 mb 0.00 in0.0 mm 0.00 in/hr0.0 mm/hr 0.00 in0.0 mm
03:15 AM 38.5°F3.6°C 32.2°F0.1°C 78% 8.3 mph NW13.4 kmh NW 12.1 mph19.5 kmh 30.00 in1015.9 mb 0.00 in0.0 mm 0.00 in/hr0.0 mm/hr 0.00 in0.0 mm
03:00 AM 38.8°F3.8°C 32.3°F0.2°C 77% 11.1 mph NW17.9 kmh NW 17.4 mph28.0 kmh 30.00 in1015.9 mb 0.00 in0.0 mm 0.00 in/hr0.0 mm/hr 0.00 in0.0 mm
02:45 AM 38.8°F3.8°C 32.3°F0.2°C 77% 10.2 mph NW16.4 kmh NW 14.5 mph23.3 kmh 30.00 in1015.9 mb 0.00 in0.0 mm 0.00 in/hr0.0 mm/hr 0.00 in0.0 mm
02:30 AM 38.7°F3.7°C 32.1°F0.1°C 77% 9.1 mph NW14.6 kmh NW 13.0 mph20.9 kmh 29.99 in1015.6 mb 0.00 in0.0 mm 0.00 in/hr0.0 mm/hr 0.00 in0.0 mm
02:15 AM 38.8°F3.8°C 32.3°F0.2°C 77% 8.8 mph NW14.2 kmh NW 12.1 mph19.5 kmh 29.99 in1015.6 mb 0.00 in0.0 mm 0.00 in/hr0.0 mm/hr 0.00 in0.0 mm
02:00 AM 39.2°F4.0°C 32.3°F0.2°C 76% 9.0 mph NW14.5 kmh NW 13.0 mph20.9 kmh 29.99 in1015.6 mb 0.00 in0.0 mm 0.00 in/hr0.0 mm/hr 0.00 in0.0 mm
01:45 AM 39.4°F4.1°C 32.1°F0.1°C 75% 10.9 mph WNW17.5 kmh WNW 14.5 mph23.3 kmh 29.99 in1015.6 mb 0.00 in0.0 mm 0.00 in/hr0.0 mm/hr 0.00 in0.0 mm
01:30 AM 39.6°F4.2°C 32.6°F0.3°C 76% 10.3 mph NNW16.6 kmh NNW 15.2 mph24.5 kmh 29.98 in1015.2 mb 0.00 in0.0 mm 0.00 in/hr0.0 mm/hr 0.00 in0.0 mm
01:15 AM 39.9°F4.4°C 32.7°F0.4°C 75% 9.5 mph NW15.3 kmh NW 13.0 mph20.9 kmh 29.98 in1015.2 mb 0.00 in0.0 mm 0.00 in/hr0.0 mm/hr 0.00 in0.0 mm
01:00 AM 40.3°F4.6°C 33.0°F0.6°C 75% 11.5 mph NW18.5 kmh NW 15.2 mph24.5 kmh 29.98 in1015.2 mb 0.00 in0.0 mm 0.00 in/hr0.0 mm/hr 0.00 in0.0 mm
12:45 AM 40.3°F4.6°C 33.0°F0.6°C 75% 10.4 mph NW16.7 kmh NW 13.6 mph21.9 kmh 29.97 in1014.9 mb 0.00 in0.0 mm 0.00 in/hr0.0 mm/hr 0.00 in0.0 mm
12:30 AM 40.5°F4.7°C 32.8°F0.4°C 74% 12.0 mph NW19.3 kmh NW 17.4 mph28.0 kmh 29.97 in1014.9 mb 0.00 in0.0 mm 0.00 in/hr0.0 mm/hr 0.00 in0.0 mm
12:15 AM 40.6°F4.8°C 33.3°F0.7°C 75% 10.9 mph NNW17.5 kmh NNW 14.5 mph23.3 kmh 29.96 in1014.6 mb 0.00 in0.0 mm 0.00 in/hr0.0 mm/hr 0.00 in0.0 mm
12:00 AM 40.5°F4.7°C 33.8°F1.0°C 77% 9.3 mph NW15.0 kmh NW 13.6 mph21.9 kmh 29.96 in1014.6 mb 0.00 in0.0 mm 0.00 in/hr0.0 mm/hr 0.00 in0.0 mm